LIRL

Latina Airport

Latina, Italy
TAF LIRL 211400Z 2115/2124 09008KT 8000 FEW020 BKN040 TEMPO 2115/2121 RA PROB40 TEMPO 2121/2124 5000 SHRA FEW020CB BKN030
Issued Valid From Valid To
Jan-21 @ 14:00 UTC
(10 hours ago)
Jan-21 @ 15:00 UTC
(9 hours ago)
Jan-22 @ 00:00 UTC
(10 minutes ago)
Expired Click to View Jan-21 @ 15:00 to Jan-22 @ 00:00
TAF LIRL 211400Z 2115/2124 09008KT 8000 FEW020 BKN040
Wind Visibility Clouds
90° at 8 knots 7,998 meters
  • Few at 2,000' AGL
  • Broken at 4,000' AGL
Expired Click to View Jan-21 @ 15:00 to Jan-21 @ 21:00
TEMPO 2115/2121 RA
Conditions
  • Rain
Expired Click to View Jan-21 @ 21:00 to Jan-22 @ 00:00
PROB40 TEMPO 2121/2124 5000 SHRA FEW020CB BKN030
Visibility Clouds Conditions
5,005 meters
  • Few at 2,000' AGL
  • Broken at 3,000' AGL
  • Rain
TAF LIRL 211400Z 2115/2124 09008KT 8000 FEW020 BKN040 TEMPO 2115/2121 RA PROB40 TEMPO 2121/2124 5000 SHRA FEW020CB BKN030
Issued Jan-21 @ 14:00 UTC
(10 hours ago)
Valid From Jan-21 @ 15:00 UTC
(9 hours ago)
Valid To Jan-22 @ 00:00 UTC
(10 minutes ago)
Jan-21 @ 15:00 - Jan-22 @ 00:00
Wind Visibility
90° at 8 knots 7,998 meters
Clouds
  • Few at 2,000' AGL
  • Broken at 4,000' AGL
Jan-21 @ 15:00 - Jan-21 @ 21:00
Conditions
  • Rain
Jan-21 @ 21:00 - Jan-22 @ 00:00
Clouds
  • Few at 2,000' AGL
  • Broken at 3,000' AGL
Conditions
  • Rain